首页
METAR-TAF:

METAR-TAF

机场 :

出雲機場

出雲, 日本

纬度: 35-25N, 经度: 132-54E, 海拔: 2米

当前天气观测

该预报发布于27分钟前的01:00 UTC
风速2节,风向多变
温度 19°C
湿度 64%
气压 1018 hPa
能见度10公里或以上
少量云层高于3000英尺

METAR: RJOC 240100Z VRB02KT 9999 FEW030 19/12 Q1018

时间: 10:27 (01:27 UTC)

预报

该预报发布于2小时和20分钟前的23:07 UTC
预报有效从24日的 00点(UTC)到 25日的 06点(UTC)
风速4节,风向西
能见度10公里或以上
少量云层高于3000英尺
成为
从 24日的 00点(UTC)到 24日的 02点(UTC)
风速5节,风向北转西北
成为
从 24日的 10点(UTC)到 24日的 12点(UTC)
风速4节,风向
成为
从 25日的 00点(UTC)到 25日的 03点(UTC)
风速5节,风向北转东北

TAF: RJOC 232307Z 2400/2506 28004KT 9999 FEW030 BECMG 2400/2402 34005KT BECMG 2410/2412 17004KT BECMG 2500/2503 03005KT

超过4000个机场的气象观测和天气预报(METAR&TAF报告)。

可查询的气象台以黄色和红色小点在地图上表示。

将鼠标移到小点上方,可查看气象台名称。

然后点击查看天气观测和预报。

如需切换地图:点击带黑十字的绿色按钮放大地图;点击带横线的绿色按钮缩小地图;或者点击绿色箭头查看邻近地区的地图。


METAR-TAF: